TimeEDT,TemperatureF,Dew PointF,Humidity,Sea Level PressureIn,VisibilityMPH,Wind Direction,Wind SpeedMPH,Gust SpeedMPH,PrecipitationIn,Events,Conditions,WindDirDegrees,DateUTC
12:53 AM,57.0,55.0,93,-9999,10.0,NNE,3.5,-,N/A,,Clear,30,2013-05-27 04:53:00
1:53 AM,57.9,57.0,97,-9999,10.0,Calm,Calm,-,N/A,,Clear,0,2013-05-27 05:53:00
2:53 AM,57.0,55.9,96,-9999,6.0,Calm,Calm,-,N/A,,Clear,0,2013-05-27 06:53:00
3:00 AM,57.2,55.4,94,-9999,1.5,Calm,Calm,-,N/A,,Clear,0,2013-05-27 07:00:00
3:09 AM,57.2,55.4,94,-9999,3.0,Calm,Calm,-,N/A,,Clear,0,2013-05-27 07:09:00
3:53 AM,55.9,55.0,97,-9999,7.0,NE,3.5,-,N/A,,Clear,40,2013-05-27 07:53:00
4:53 AM,57.0,55.9,96,-9999,10.0,Calm,Calm,-,N/A,,Clear,0,2013-05-27 08:53:00
5:53 AM,57.0,55.9,96,-9999,10.0,NNE,4.6,-,N/A,,Clear,30,2013-05-27 09:53:00
6:53 AM,60.1,57.9,93,-9999,10.0,NE,3.5,-,N/A,,Clear,40,2013-05-27 10:53:00
7:53 AM,66.0,60.1,81,-9999,10.0,NE,3.5,-,N/A,,Clear,50,2013-05-27 11:53:00
8:53 AM,73.0,55.9,55,-9999,10.0,SE,8.1,-,N/A,,Clear,130,2013-05-27 12:53:00
9:53 AM,73.9,55.0,52,-9999,10.0,ESE,8.1,-,N/A,,Partly Cloudy,120,2013-05-27 13:53:00
10:53 AM,75.0,57.0,53,-9999,10.0,ESE,6.9,-,N/A,,Mostly Cloudy,120,2013-05-27 14:53:00
11:53 AM,75.0,57.0,53,30.28,10.0,SE,8.1,-,N/A,,Partly Cloudy,130,2013-05-27 15:53:00
12:53 PM,75.9,57.0,52,30.27,10.0,ESE,9.2,-,N/A,,Partly Cloudy,110,2013-05-27 16:53:00
1:53 PM,75.0,57.0,53,30.27,10.0,ESE,8.1,-,N/A,,Clear,120,2013-05-27 17:53:00
2:53 PM,75.0,59.0,57,30.26,10.0,SSE,8.1,-,N/A,,Clear,150,2013-05-27 18:53:00
3:53 PM,75.0,59.0,57,30.25,10.0,SSE,10.4,17.3,N/A,,Clear,160,2013-05-27 19:53:00
4:53 PM,75.0,57.9,55,30.23,10.0,SE,10.4,-,N/A,,Clear,140,2013-05-27 20:53:00
5:53 PM,75.0,60.1,60,30.22,10.0,SE,6.9,-,N/A,,Clear,140,2013-05-27 21:53:00
6:53 PM,73.9,61.0,64,30.21,10.0,SSE,8.1,-,N/A,,Clear,150,2013-05-27 22:53:00
7:53 PM,73.0,61.0,66,30.22,10.0,SSE,5.8,-,N/A,,Clear,150,2013-05-27 23:53:00
8:53 PM,72.0,61.0,68,30.22,10.0,SE,4.6,-,N/A,,Clear,140,2013-05-28 00:53:00
9:53 PM,72.0,63.0,73,30.24,10.0,SSE,6.9,-,N/A,,Clear,150,2013-05-28 01:53:00
10:53 PM,72.0,64.0,76,30.25,10.0,SSE,5.8,-,N/A,,Clear,150,2013-05-28 02:53:00
11:53 PM,72.0,64.0,76,30.23,10.0,SSE,8.1,-,N/A,,Clear,160,2013-05-28 03:53:00